Time;durP1;ratioP1;P1;durP2;ratioP2;P2;SDS_P1;SDS_P2;PMS_P1;PMS_P2;Temp;Humidity;BMP_temperature;BMP_pressure;BME280_temperature;BME280_humidity;BME280_pressure;Samples;Min_cycle;Max_cycle;Signal;HPM_P1;HPM_P2
2022/12/11 00:01:54;;;;;;;;;;;;;;;;;;5099284;28;1913;-75
2022/12/11 00:04:20;;;;;;;;;;;;;;;;;;5082180;28;1171;-74
2022/12/11 00:06:49;;;;;;;;;;;;;;;;;;5095949;28;1043;-74
2022/12/11 00:09:15;;;;;;;;;;;;;;;;;;5092302;28;960;-74
2022/12/11 00:11:41;;;;;;;;;;;;;;;;;;5093952;28;1289;-74
2022/12/11 00:14:07;;;;;;;;;;;;;;;;;;5094302;28;1240;-75
2022/12/11 00:16:33;;;;;;;;;;;;;;;;;;5094655;28;1042;-74
2022/12/11 00:18:59;;;;;;;;;;;;;;;;;;5094699;28;1074;-73
2022/12/11 00:21:26;;;;;;;;;;;;;;;;;;5093779;28;1976;-75
2022/12/11 00:23:52;;;;;;;;;;;;;;;;;;5094412;28;1098;-74
2022/12/11 00:26:18;;;;;;;;;;;;;;;;;;5095155;28;972;-74
2022/12/11 00:28:44;;;;;;;;;;;;;;;;;;5077533;28;1276;-74
2022/12/11 00:31:10;;;;;;;;;;;;;;;;;;5076870;28;1421;-74
2022/12/11 00:33:36;;;;;;;;;;;;;;;;;;5093841;28;1519;-74
2022/12/11 00:36:02;;;;;;;;;;;;;;;;;;5076286;28;1191;-74
2022/12/11 00:38:28;;;;;;;;;;;;;;;;;;5094535;28;964;-73
2022/12/11 00:40:54;;;;;;;;;;;;;;;;;;5094357;28;1975;-74
2022/12/11 00:43:21;;;;;;;;;;;;;;;;;;5093281;28;1466;-74
2022/12/11 00:45:47;;;;;;;;;;;;;;;;;;5093811;28;1043;-72
2022/12/11 00:48:13;;;;;;;;;;;;;;;;;;5094041;28;1098;-73
2022/12/11 00:50:39;;;;;;;;;;;;;;;;;;5093953;28;794;-74
2022/12/11 00:53:05;;;;;;;;;;;;;;;;;;5093036;28;1430;-74
2022/12/11 00:55:31;;;;;;;;;;;;;;;;;;5093831;28;1115;-74
2022/12/11 00:57:57;;;;;;;;;;;;;;;;;;5093969;28;1114;-74
2022/12/11 01:00:23;;;;;;;;;;;;;;;;;;5094055;28;1115;-75
2022/12/11 01:02:49;;;;;;;;;;;;;;;;;;5092562;28;1910;-74
2022/12/11 01:05:15;;;;;;;;;;;;;;;;;;5093605;28;1134;-75
2022/12/11 01:07:42;;;;;;;;;;;;;;;;;;5093528;28;1020;-75
2022/12/11 01:10:26;;;;;;;;;;;;;;;;;;5093506;28;1106;-74
2022/12/11 01:12:52;;;;;;;;;;;;;;;;;;5074443;28;1343;-74
2022/12/11 01:15:18;;;;;;;;;;;;;;;;;;5093418;28;1127;-74
2022/12/11 01:17:44;;;;;;;;;;;;;;;;;;5093191;28;889;-74
2022/12/11 01:20:10;;;;;;;;;;;;;;;;;;5092713;28;1080;-74
2022/12/11 01:22:36;;;;;;;;;;;;;;;;;;5092039;28;1975;-75
2022/12/11 01:25:02;;;;;;;;;;;;;;;;;;5093305;28;1068;-74
2022/12/11 01:27:29;;;;;;;;;;;;;;;;;;5093239;28;905;-74
2022/12/11 01:29:55;;;;;;;;;;;;;;;;;;5093094;28;1114;-74
2022/12/11 01:32:21;;;;;;;;;;;;;;;;;;5092203;28;1385;-73
2022/12/11 01:34:47;;;;;;;;;;;;;;;;;;5092641;28;1119;-74
2022/12/11 01:37:13;;;;;;;;;;;;;;;;;;5093134;28;972;-74
2022/12/11 01:39:39;;;;;;;;;;;;;;;;;;5092794;28;1111;-73
2022/12/11 01:42:09;;;;;;;;;;;;;;;;;;5092189;28;1965;-74
2022/12/11 01:44:36;;;;;;;;;;;;;;;;;;5092761;28;1120;-73
2022/12/11 01:47:02;;;;;;;;;;;;;;;;;;5092912;28;811;-74
2022/12/11 01:49:28;;;;;;;;;;;;;;;;;;5092796;28;893;-74
2022/12/11 01:51:54;;;;;;;;;;;;;;;;;;5099048;28;1518;-72
2022/12/11 01:54:20;;;;;;;;;;;;;;;;;;5112821;28;881;-72
2022/12/11 01:56:46;;;;;;;;;;;;;;;;;;5112782;28;1122;-74
2022/12/11 01:59:13;;;;;;;;;;;;;;;;;;5113008;28;916;-74
2022/12/11 02:01:39;;;;;;;;;;;;;;;;;;5112065;28;1913;-74
2022/12/11 02:04:05;;;;;;;;;;;;;;;;;;5112672;28;980;-74
2022/12/11 02:06:31;;;;;;;;;;;;;;;;;;5112774;28;804;-74
2022/12/11 02:08:57;;;;;;;;;;;;;;;;;;5112926;28;1046;-74
2022/12/11 02:11:24;;;;;;;;;;;;;;;;;;5111839;28;1309;-74
2022/12/11 02:13:50;;;;;;;;;;;;;;;;;;5112451;28;1082;-74
2022/12/11 02:16:16;;;;;;;;;;;;;;;;;;5112836;28;1067;-74
2022/12/11 02:18:42;;;;;;;;;;;;;;;;;;5107804;28;1141;-74
2022/12/11 02:21:09;;;;;;;;;;;;;;;;;;5054022;28;1981;-75
2022/12/11 02:23:35;;;;;;;;;;;;;;;;;;5070979;28;1293;-74
2022/12/11 02:26:02;;;;;;;;;;;;;;;;;;5072055;28;996;-74
2022/12/11 02:28:28;;;;;;;;;;;;;;;;;;5071980;28;1071;-74
2022/12/11 02:30:54;;;;;;;;;;;;;;;;;;5071608;28;754;-74
2022/12/11 02:33:20;;;;;;;;;;;;;;;;;;5070513;28;1419;-74
2022/12/11 02:35:47;;;;;;;;;;;;;;;;;;5071625;28;668;-74
2022/12/11 02:38:13;;;;;;;;;;;;;;;;;;5071799;28;945;-75
2022/12/11 02:40:39;;;;;;;;;;;;;;;;;;5071535;28;1317;-74
2022/12/11 02:43:05;;;;;;;;;;;;;;;;;;5070701;28;1914;-73
2022/12/11 02:45:31;;;;;;;;;;;;;;;;;;5071534;28;1076;-74
2022/12/11 02:47:57;;;;;;;;;;;;;;;;;;5071618;28;802;-74
2022/12/11 02:50:23;;;;;;;;;;;;;;;;;;5071758;28;1115;-73
2022/12/11 02:52:49;;;;;;;;;;;;;;;;;;5070744;28;1399;-74
2022/12/11 02:55:15;;;;;;;;;;;;;;;;;;5053650;28;1575;-74
2022/12/11 02:57:41;;;;;;;;;;;;;;;;;;5071537;28;932;-74
2022/12/11 03:00:07;;;;;;;;;;;;;;;;;;5071449;28;1119;-74
2022/12/11 03:02:34;;;;;;;;;;;;;;;;;;5070544;28;1914;-74
2022/12/11 03:05:00;;;;;;;;;;;;;;;;;;5071185;28;1123;-74
2022/12/11 03:07:26;;;;;;;;;;;;;;;;;;5071574;28;965;-74
2022/12/11 03:09:52;;;;;;;;;;;;;;;;;;5076280;28;1698;-74
2022/12/11 03:12:18;;;;;;;;;;;;;;;;;;5090630;28;1360;-75
2022/12/11 03:14:44;;;;;;;;;;;;;;;;;;5091271;28;1548;-72
2022/12/11 03:17:10;;;;;;;;;;;;;;;;;;5091672;28;909;-74
2022/12/11 03:19:36;;;;;;;;;;;;;;;;;;5091627;28;1068;-74
2022/12/11 03:22:03;;;;;;;;;;;;;;;;;;5091161;28;1914;-74
2022/12/11 03:24:29;;;;;;;;;;;;;;;;;;5093813;28;1043;-74
2022/12/11 03:26:55;;;;;;;;;;;;;;;;;;5079596;28;1168;-74
2022/12/11 03:29:21;;;;;;;;;;;;;;;;;;5079976;28;1103;-75
2022/12/11 03:31:47;;;;;;;;;;;;;;;;;;5090851;28;1332;-74
2022/12/11 03:34:13;;;;;;;;;;;;;;;;;;5091423;28;1071;-74
2022/12/11 03:36:39;;;;;;;;;;;;;;;;;;5072953;28;1044;-74
2022/12/11 03:39:05;;;;;;;;;;;;;;;;;;5092377;28;949;-73
2022/12/11 03:41:31;;;;;;;;;;;;;;;;;;5073314;28;1909;-74
2022/12/11 03:43:57;;;;;;;;;;;;;;;;;;5092927;28;911;-75
2022/12/11 03:46:24;;;;;;;;;;;;;;;;;;5096319;28;1106;-74
2022/12/11 03:48:50;;;;;;;;;;;;;;;;;;5096049;28;612;-74
2022/12/11 03:51:16;;;;;;;;;;;;;;;;;;5096370;28;1479;-71
2022/12/11 03:53:42;;;;;;;;;;;;;;;;;;5094281;28;1136;-74
2022/12/11 03:56:08;;;;;;;;;;;;;;;;;;5094740;28;1052;-73
2022/12/11 03:58:34;;;;;;;;;;;;;;;;;;5094952;28;1135;-74
2022/12/11 04:01:01;;;;;;;;;;;;;;;;;;5094967;28;1122;-72
2022/12/11 04:03:27;;;;;;;;;;;;;;;;;;5093966;28;1977;-74
2022/12/11 04:05:53;;;;;;;;;;;;;;;;;;5094534;28;794;-74
2022/12/11 04:08:19;;;;;;;;;;;;;;;;;;5094715;28;1094;-74
2022/12/11 04:10:45;;;;;;;;;;;;;;;;;;5094452;28;1399;-74
2022/12/11 04:13:11;;;;;;;;;;;;;;;;;;5093773;28;1364;-74
2022/12/11 04:15:36;;;;;;;;;;;;;;;;;;5095229;28;1079;-75
2022/12/11 04:26:14;;;;;;;;;;;;;;;;;;5094128;28;1127;-74
2022/12/11 04:28:40;;;;;;;;;;;;;;;;;;5093973;28;1194;-73
2022/12/11 04:31:06;;;;;;;;;;;;;;;;;;5094225;28;731;-74
2022/12/11 04:33:32;;;;;;;;;;;;;;;;;;5093070;28;1396;-74
2022/12/11 04:35:58;;;;;;;;;;;;;;;;;;5094038;28;1008;-74
2022/12/11 04:38:24;;;;;;;;;;;;;;;;;;5094075;28;945;-74
2022/12/11 04:40:50;;;;;;;;;;;;;;;;;;5093887;28;1112;-74
2022/12/11 04:43:16;;;;;;;;;;;;;;;;;;5092615;28;1975;-72
2022/12/11 04:45:42;;;;;;;;;;;;;;;;;;5093928;28;1051;-74
2022/12/11 04:48:08;;;;;;;;;;;;;;;;;;5093940;28;1072;-74
2022/12/11 04:50:34;;;;;;;;;;;;;;;;;;5093829;28;917;-71
2022/12/11 04:53:01;;;;;;;;;;;;;;;;;;5074827;28;1321;-72
2022/12/11 04:55:27;;;;;;;;;;;;;;;;;;5093385;28;1054;-72
2022/12/11 04:57:53;;;;;;;;;;;;;;;;;;5093409;28;1130;-74
2022/12/11 05:00:19;;;;;;;;;;;;;;;;;;5075426;28;1203;-74
2022/12/11 05:02:45;;;;;;;;;;;;;;;;;;5092872;28;1914;-73
2022/12/11 05:05:11;;;;;;;;;;;;;;;;;;5093692;28;919;-74
2022/12/11 05:07:37;;;;;;;;;;;;;;;;;;5093379;28;1123;-74
2022/12/11 05:10:03;;;;;;;;;;;;;;;;;;5093575;28;929;-73
2022/12/11 05:12:29;;;;;;;;;;;;;;;;;;5092570;28;1343;-73
2022/12/11 05:14:55;;;;;;;;;;;;;;;;;;5093366;28;921;-73
2022/12/11 05:17:21;;;;;;;;;;;;;;;;;;5093251;28;1060;-73
2022/12/11 05:19:48;;;;;;;;;;;;;;;;;;5093173;28;1072;-74
2022/12/11 05:22:14;;;;;;;;;;;;;;;;;;5092329;28;1914;-74
2022/12/11 05:24:40;;;;;;;;;;;;;;;;;;5093066;28;1011;-72
2022/12/11 05:27:06;;;;;;;;;;;;;;;;;;5092934;28;1138;-73
2022/12/11 05:29:32;;;;;;;;;;;;;;;;;;5092936;28;952;-72
2022/12/11 05:31:58;;;;;;;;;;;;;;;;;;5091992;28;1313;-74
2022/12/11 05:34:25;;;;;;;;;;;;;;;;;;5092719;28;1012;-74
2022/12/11 05:36:51;;;;;;;;;;;;;;;;;;5106503;22;3576;-77
2022/12/11 05:39:17;;;;;;;;;;;;;;;;;;5076370;28;1038;-76
2022/12/11 05:41:43;;;;;;;;;;;;;;;;;;5094329;28;1910;-78
2022/12/11 05:44:09;;;;;;;;;;;;;;;;;;5077039;28;1400;-78
2022/12/11 05:46:35;;;;;;;;;;;;;;;;;;5094846;28;1332;-78
2022/12/11 05:49:01;;;;;;;;;;;;;;;;;;5095761;28;1446;-78
2022/12/11 05:51:27;;;;;;;;;;;;;;;;;;5113809;28;1499;-78
2022/12/11 05:53:53;;;;;;;;;;;;;;;;;;5114852;28;984;-78
2022/12/11 05:56:19;;;;;;;;;;;;;;;;;;5114935;28;1276;-78
2022/12/11 05:58:45;;;;;;;;;;;;;;;;;;5114879;28;806;-78
2022/12/11 06:01:11;;;;;;;;;;;;;;;;;;5114488;28;1086;-76
2022/12/11 06:03:38;;;;;;;;;;;;;;;;;;5113498;28;1902;-78
2022/12/11 06:06:04;;;;;;;;;;;;;;;;;;5114257;28;1289;-78
2022/12/11 06:08:30;;;;;;;;;;;;;;;;;;5114285;28;870;-78
2022/12/11 06:10:56;;;;;;;;;;;;;;;;;;5114425;28;1079;-78
2022/12/11 06:13:22;;;;;;;;;;;;;;;;;;5113544;28;1111;-78
2022/12/11 06:15:48;;;;;;;;;;;;;;;;;;5095857;28;1360;-78
2022/12/11 06:18:14;;;;;;;;;;;;;;;;;;5114383;28;1055;-78
2022/12/11 06:20:40;;;;;;;;;;;;;;;;;;5114031;28;901;-78
2022/12/11 06:23:06;;;;;;;;;;;;;;;;;;5068131;28;1922;-76
2022/12/11 06:25:32;;;;;;;;;;;;;;;;;;5040574;28;1328;-76
2022/12/11 06:27:59;;;;;;;;;;;;;;;;;;5025997;28;1235;-76
2022/12/11 06:30:25;;;;;;;;;;;;;;;;;;5048760;28;1287;-76
2022/12/11 06:32:51;;;;;;;;;;;;;;;;;;5036108;28;968;-75
2022/12/11 06:35:17;;;;;;;;;;;;;;;;;;5048799;28;1632;-74
2022/12/11 06:37:46;;;;;;;;;;;;;;;;;;5028635;28;1297;-75
2022/12/11 06:40:12;;;;;;;;;;;;;;;;;;5023582;28;944;-75
2022/12/11 06:42:38;;;;;;;;;;;;;;;;;;5005949;28;2005;-76
2022/12/11 06:45:05;;;;;;;;;;;;;;;;;;5024806;28;1272;-76
2022/12/11 06:47:31;;;;;;;;;;;;;;;;;;5019925;28;1408;-78
2022/12/11 06:49:58;;;;;;;;;;;;;;;;;;5019162;28;1148;-77
2022/12/11 06:52:24;;;;;;;;;;;;;;;;;;5007081;28;877;-76
2022/12/11 06:54:50;;;;;;;;;;;;;;;;;;5005380;28;948;-76
2022/12/11 06:57:17;;;;;;;;;;;;;;;;;;5046838;28;1429;-76
2022/12/11 06:59:43;;;;;;;;;;;;;;;;;;5031236;28;1541;-76
2022/12/11 07:02:09;;;;;;;;;;;;;;;;;;5026673;28;1918;-78
2022/12/11 07:04:36;;;;;;;;;;;;;;;;;;5033518;28;921;-78
2022/12/11 07:07:02;;;;;;;;;;;;;;;;;;5004980;28;1408;-78
2022/12/11 07:09:28;;;;;;;;;;;;;;;;;;5010190;28;989;-78
2022/12/11 07:11:54;;;;;;;;;;;;;;;;;;5009160;28;866;-77
2022/12/11 07:14:21;;;;;;;;;;;;;;;;;;5010649;28;878;-76
2022/12/11 07:16:47;;;;;;;;;;;;;;;;;;5008829;28;1438;-76
2022/12/11 07:19:13;;;;;;;;;;;;;;;;;;5012988;28;1471;-76
2022/12/11 07:21:39;;;;;;;;;;;;;;;;;;5039860;28;1348;-77
2022/12/11 07:24:05;;;;;;;;;;;;;;;;;;5020929;28;2202;-77
2022/12/11 07:26:32;;;;;;;;;;;;;;;;;;5028514;28;1592;-76
2022/12/11 07:28:58;;;;;;;;;;;;;;;;;;5045469;28;1403;-76
2022/12/11 07:31:24;;;;;;;;;;;;;;;;;;5006535;28;925;-77
2022/12/11 07:33:50;;;;;;;;;;;;;;;;;;5012929;28;985;-78
2022/12/11 07:36:17;;;;;;;;;;;;;;;;;;5010994;28;1305;-77
2022/12/11 07:38:43;;;;;;;;;;;;;;;;;;5009145;28;937;-77
2022/12/11 07:41:09;;;;;;;;;;;;;;;;;;5005079;28;1052;-78
2022/12/11 07:43:35;;;;;;;;;;;;;;;;;;5005642;28;1952;-78
2022/12/11 07:46:02;;;;;;;;;;;;;;;;;;5013803;28;1282;-78
2022/12/11 07:48:28;;;;;;;;;;;;;;;;;;5012503;28;881;-77
2022/12/11 07:50:54;;;;;;;;;;;;;;;;;;5012383;28;1011;-78
2022/12/11 07:53:21;;;;;;;;;;;;;;;;;;5022458;28;988;-77
2022/12/11 07:55:47;;;;;;;;;;;;;;;;;;5026416;28;1380;-77
2022/12/11 07:58:13;;;;;;;;;;;;;;;;;;5043698;28;913;-78
2022/12/11 08:00:39;;;;;;;;;;;;;;;;;;5028145;28;1050;-77
2022/12/11 08:03:06;;;;;;;;;;;;;;;;;;5016651;28;1958;-77
2022/12/11 08:05:32;;;;;;;;;;;;;;;;;;5026325;28;1509;-75
2022/12/11 08:07:58;;;;;;;;;;;;;;;;;;5031659;28;1433;-76
2022/12/11 08:10:25;;;;;;;;;;;;;;;;;;5012655;28;768;-77
2022/12/11 08:12:52;;;;;;;;;;;;;;;;;;5009422;28;901;-76
2022/12/11 08:15:18;;;;;;;;;;;;;;;;;;5029972;28;1067;-76
2022/12/11 08:17:45;;;;;;;;;;;;;;;;;;5003071;28;2424;-76
2022/12/11 08:20:11;;;;;;;;;;;;;;;;;;5013177;28;970;-77
2022/12/11 08:22:37;;;;;;;;;;;;;;;;;;5028667;28;1930;-77
2022/12/11 08:25:03;;;;;;;;;;;;;;;;;;5023656;28;996;-76
2022/12/11 08:27:29;;;;;;;;;;;;;;;;;;5017488;28;1412;-76
2022/12/11 08:29:56;;;;;;;;;;;;;;;;;;5094096;28;1569;-77
2022/12/11 08:32:22;;;;;;;;;;;;;;;;;;5082999;28;1380;-77
2022/12/11 08:34:49;;;;;;;;;;;;;;;;;;5078046;28;1391;-77
2022/12/11 08:37:15;;;;;;;;;;;;;;;;;;5078739;28;1387;-78
2022/12/11 08:39:42;;;;;;;;;;;;;;;;;;5097722;28;1047;-77
2022/12/11 08:42:08;;;;;;;;;;;;;;;;;;5096849;28;1048;-77
2022/12/11 08:44:34;;;;;;;;;;;;;;;;;;5098271;28;1926;-77
2022/12/11 08:47:01;;;;;;;;;;;;;;;;;;5097512;28;1288;-77
2022/12/11 08:49:27;;;;;;;;;;;;;;;;;;5097865;28;1339;-77
2022/12/11 08:51:53;;;;;;;;;;;;;;;;;;5077817;28;1045;-76
2022/12/11 08:54:20;;;;;;;;;;;;;;;;;;5095037;28;1080;-76
2022/12/11 08:56:49;;;;;;;;;;;;;;;;;;5094565;28;1294;-76
2022/12/11 08:59:15;;;;;;;;;;;;;;;;;;5094176;28;956;-77
2022/12/11 09:01:41;;;;;;;;;;;;;;;;;;5094671;28;1051;-75
2022/12/11 09:04:07;;;;;;;;;;;;;;;;;;5094653;28;1973;-77
2022/12/11 09:06:33;;;;;;;;;;;;;;;;;;5094232;28;1426;-76
2022/12/11 09:08:59;;;;;;;;;;;;;;;;;;5089525;28;996;-76
2022/12/11 09:11:25;;;;;;;;;;;;;;;;;;5051804;28;889;-75
2022/12/11 09:13:52;;;;;;;;;;;;;;;;;;5025845;28;873;-76
2022/12/11 09:16:18;;;;;;;;;;;;;;;;;;5029295;28;1380;-76
2022/12/11 09:18:44;;;;;;;;;;;;;;;;;;5030148;28;908;-76
2022/12/11 09:21:12;;;;;;;;;;;;;;;;;;5030034;28;846;-76
2022/12/11 09:23:38;;;;;;;;;;;;;;;;;;5007114;28;1938;-77
2022/12/11 09:26:05;;;;;;;;;;;;;;;;;;5023318;28;1909;-77
2022/12/11 09:28:31;;;;;;;;;;;;;;;;;;5024385;28;932;-77
2022/12/11 09:30:57;;;;;;;;;;;;;;;;;;5031303;28;941;-76
2022/12/11 09:33:24;;;;;;;;;;;;;;;;;;5030748;28;870;-77
2022/12/11 09:35:50;;;;;;;;;;;;;;;;;;5033915;28;1321;-77
2022/12/11 09:38:16;;;;;;;;;;;;;;;;;;5034837;28;879;-77
2022/12/11 09:40:42;;;;;;;;;;;;;;;;;;5011136;28;1682;-77
2022/12/11 09:43:09;;;;;;;;;;;;;;;;;;5006873;28;1942;-77
2022/12/11 09:45:35;;;;;;;;;;;;;;;;;;5028803;28;1325;-78
2022/12/11 09:48:01;;;;;;;;;;;;;;;;;;5031087;28;893;-78
2022/12/11 09:50:27;;;;;;;;;;;;;;;;;;5032640;28;900;-77
2022/12/11 09:52:53;;;;;;;;;;;;;;;;;;5029025;28;826;-77
2022/12/11 09:55:20;;;;;;;;;;;;;;;;;;5031781;28;1538;-76
2022/12/11 09:57:46;;;;;;;;;;;;;;;;;;5010934;28;918;-77
2022/12/11 10:00:13;;;;;;;;;;;;;;;;;;5033686;28;924;-77
2022/12/11 10:02:39;;;;;;;;;;;;;;;;;;5033296;28;872;-77
2022/12/11 10:05:05;;;;;;;;;;;;;;;;;;5033967;28;2079;-78
2022/12/11 10:07:32;;;;;;;;;;;;;;;;;;5031515;28;1368;-77
2022/12/11 10:09:58;;;;;;;;;;;;;;;;;;5030833;28;873;-77
2022/12/11 10:12:24;;;;;;;;;;;;;;;;;;5030474;28;929;-78
2022/12/11 10:14:50;;;;;;;;;;;;;;;;;;5031310;28;912;-79
2022/12/11 10:17:17;;;;;;;;;;;;;;;;;;5032005;28;1330;-76
2022/12/11 10:19:43;;;;;;;;;;;;;;;;;;5029958;28;904;-76
2022/12/11 10:22:09;;;;;;;;;;;;;;;;;;5033514;28;960;-77
2022/12/11 10:24:35;;;;;;;;;;;;;;;;;;5033962;28;2001;-76
2022/12/11 10:27:02;;;;;;;;;;;;;;;;;;5031671;28;1360;-77
2022/12/11 10:29:28;;;;;;;;;;;;;;;;;;5034718;28;932;-77
2022/12/11 10:31:54;;;;;;;;;;;;;;;;;;5035285;28;960;-77
2022/12/11 10:34:20;;;;;;;;;;;;;;;;;;5031287;28;908;-77
2022/12/11 10:36:47;;;;;;;;;;;;;;;;;;5025158;28;1357;-77
2022/12/11 10:39:13;;;;;;;;;;;;;;;;;;5029917;28;873;-77
2022/12/11 10:41:39;;;;;;;;;;;;;;;;;;5032627;28;971;-77
2022/12/11 10:44:06;;;;;;;;;;;;;;;;;;5030212;28;2003;-78
2022/12/11 10:46:32;;;;;;;;;;;;;;;;;;5034372;28;1332;-77
2022/12/11 10:48:58;;;;;;;;;;;;;;;;;;5029912;28;983;-77
2022/12/11 10:51:25;;;;;;;;;;;;;;;;;;5032622;28;964;-77
2022/12/11 10:53:51;;;;;;;;;;;;;;;;;;5005140;28;1061;-77
2022/12/11 10:56:17;;;;;;;;;;;;;;;;;;5029111;28;1418;-77
2022/12/11 10:58:44;;;;;;;;;;;;;;;;;;5053898;28;1365;-77
2022/12/11 11:01:10;;;;;;;;;;;;;;;;;;5069089;28;1393;-76
2022/12/11 11:03:36;;;;;;;;;;;;;;;;;;5044619;28;1913;-77
2022/12/11 11:06:02;;;;;;;;;;;;;;;;;;5033495;28;1360;-78
2022/12/11 11:08:29;;;;;;;;;;;;;;;;;;5036291;28;810;-77
2022/12/11 11:10:55;;;;;;;;;;;;;;;;;;5027887;28;850;-77
2022/12/11 11:13:21;;;;;;;;;;;;;;;;;;5022068;28;951;-77
2022/12/11 11:15:47;;;;;;;;;;;;;;;;;;5026410;28;1295;-77
2022/12/11 11:18:14;;;;;;;;;;;;;;;;;;5030018;28;865;-77
2022/12/11 11:20:40;;;;;;;;;;;;;;;;;;5032415;28;968;-77
2022/12/11 11:23:06;;;;;;;;;;;;;;;;;;5034430;28;961;-77
2022/12/11 11:25:33;;;;;;;;;;;;;;;;;;5031692;28;1942;-77
2022/12/11 11:27:59;;;;;;;;;;;;;;;;;;5008186;28;1135;-77
2022/12/11 11:30:25;;;;;;;;;;;;;;;;;;5029186;28;905;-79
2022/12/11 11:32:51;;;;;;;;;;;;;;;;;;5026073;28;838;-76
2022/12/11 11:35:18;;;;;;;;;;;;;;;;;;5031116;28;1349;-76
2022/12/11 11:37:44;;;;;;;;;;;;;;;;;;5030768;28;1301;-76
2022/12/11 11:40:10;;;;;;;;;;;;;;;;;;5030618;28;1006;-77
2022/12/11 11:42:37;;;;;;;;;;;;;;;;;;5041668;22;1884;-72
2022/12/11 11:45:03;;;;;;;;;;;;;;;;;;5014083;28;1997;-72
2022/12/11 11:47:29;;;;;;;;;;;;;;;;;;5001978;28;1250;-72
2022/12/11 11:49:55;;;;;;;;;;;;;;;;;;4996531;28;1893;-71
2022/12/11 11:52:24;;;;;;;;;;;;;;;;;;5001285;28;1369;-71
2022/12/11 11:54:50;;;;;;;;;;;;;;;;;;5016085;28;1435;-72
2022/12/11 11:57:16;;;;;;;;;;;;;;;;;;5019435;28;956;-72
2022/12/11 11:59:42;;;;;;;;;;;;;;;;;;5020295;28;965;-72
2022/12/11 12:02:09;;;;;;;;;;;;;;;;;;5019044;28;1341;-72
2022/12/11 12:04:35;;;;;;;;;;;;;;;;;;5004072;28;1943;-72
2022/12/11 12:07:02;;;;;;;;;;;;;;;;;;5026592;28;965;-72
2022/12/11 12:09:28;;;;;;;;;;;;;;;;;;5027907;28;1079;-72
2022/12/11 12:11:55;;;;;;;;;;;;;;;;;;5007269;28;1352;-72
2022/12/11 12:14:21;;;;;;;;;;;;;;;;;;5022163;28;869;-72
2022/12/11 12:16:47;;;;;;;;;;;;;;;;;;5022766;28;865;-72
2022/12/11 12:19:14;;;;;;;;;;;;;;;;;;5013854;28;822;-72
2022/12/11 12:21:41;;;;;;;;;;;;;;;;;;4998007;28;1402;-72
2022/12/11 12:24:07;;;;;;;;;;;;;;;;;;4999822;28;1934;-72
2022/12/11 12:26:33;;;;;;;;;;;;;;;;;;4997399;28;1136;-72
2022/12/11 12:29:00;;;;;;;;;;;;;;;;;;5019122;28;767;-72
2022/12/11 12:31:26;;;;;;;;;;;;;;;;;;5021281;28;1464;-72
2022/12/11 12:33:52;;;;;;;;;;;;;;;;;;5020679;28;885;-72
2022/12/11 12:36:19;;;;;;;;;;;;;;;;;;5016029;28;932;-72
2022/12/11 12:38:45;;;;;;;;;;;;;;;;;;5015409;28;894;-72
2022/12/11 12:41:13;;;;;;;;;;;;;;;;;;5018616;28;1262;-72
2022/12/11 12:43:39;;;;;;;;;;;;;;;;;;5022064;28;1937;-72
2022/12/11 12:46:05;;;;;;;;;;;;;;;;;;5016563;28;924;-72
2022/12/11 12:48:31;;;;;;;;;;;;;;;;;;5018728;28;869;-72
2022/12/11 12:50:58;;;;;;;;;;;;;;;;;;5016628;28;1352;-71
2022/12/11 12:53:24;;;;;;;;;;;;;;;;;;5014372;28;1087;-71
2022/12/11 12:55:50;;;;;;;;;;;;;;;;;;5015321;28;912;-72
2022/12/11 12:58:17;;;;;;;;;;;;;;;;;;5022312;28;877;-72
2022/12/11 13:00:43;;;;;;;;;;;;;;;;;;5023171;28;1327;-72
2022/12/11 13:03:09;;;;;;;;;;;;;;;;;;5020399;28;1284;-72
2022/12/11 13:05:35;;;;;;;;;;;;;;;;;;5018259;28;1930;-72
2022/12/11 13:08:02;;;;;;;;;;;;;;;;;;5020817;28;854;-72
2022/12/11 13:10:28;;;;;;;;;;;;;;;;;;5016330;28;1080;-71
2022/12/11 13:12:54;;;;;;;;;;;;;;;;;;5015983;28;1340;-71
2022/12/11 13:15:21;;;;;;;;;;;;;;;;;;5019409;28;826;-71
2022/12/11 13:17:47;;;;;;;;;;;;;;;;;;5018547;28;949;-71
2022/12/11 13:20:14;;;;;;;;;;;;;;;;;;5015958;28;841;-71
2022/12/11 13:22:40;;;;;;;;;;;;;;;;;;5012886;28;1575;-72
2022/12/11 13:25:07;;;;;;;;;;;;;;;;;;4991999;28;1939;-72
2022/12/11 13:27:33;;;;;;;;;;;;;;;;;;5061945;28;1379;-71
2022/12/11 13:29:59;;;;;;;;;;;;;;;;;;5091528;28;1487;-71
2022/12/11 13:32:25;;;;;;;;;;;;;;;;;;5091870;28;1286;-71
2022/12/11 13:34:51;;;;;;;;;;;;;;;;;;5092024;28;1893;-71
2022/12/11 13:37:17;;;;;;;;;;;;;;;;;;5091306;28;1160;-71
2022/12/11 13:39:43;;;;;;;;;;;;;;;;;;5092692;28;1130;-73
2022/12/11 13:42:09;;;;;;;;;;;;;;;;;;5091402;28;1277;-71
2022/12/11 13:44:37;;;;;;;;;;;;;;;;;;5091782;28;1902;-71
2022/12/11 13:47:03;;;;;;;;;;;;;;;;;;5092594;28;755;-71
2022/12/11 13:49:30;;;;;;;;;;;;;;;;;;5092776;28;1387;-71
2022/12/11 13:51:56;;;;;;;;;;;;;;;;;;5090196;28;1448;-72
2022/12/11 13:54:22;;;;;;;;;;;;;;;;;;5094033;28;1780;-71
2022/12/11 13:56:48;;;;;;;;;;;;;;;;;;5076957;28;1383;-71
2022/12/11 13:59:14;;;;;;;;;;;;;;;;;;5073770;28;1082;-71
2022/12/11 14:01:40;;;;;;;;;;;;;;;;;;5086883;28;1261;-71
2022/12/11 14:04:06;;;;;;;;;;;;;;;;;;5069832;28;1969;-71
2022/12/11 14:06:32;;;;;;;;;;;;;;;;;;5070846;28;1221;-71
2022/12/11 14:08:58;;;;;;;;;;;;;;;;;;5070421;28;1376;-71
2022/12/11 14:11:26;;;;;;;;;;;;;;;;;;5087800;28;1410;-71
2022/12/11 14:13:52;;;;;;;;;;;;;;;;;;5088745;28;944;-71
2022/12/11 14:16:19;;;;;;;;;;;;;;;;;;5088792;28;1116;-71
2022/12/11 14:18:45;;;;;;;;;;;;;;;;;;5088848;28;951;-71
2022/12/11 14:21:12;;;;;;;;;;;;;;;;;;5087847;28;1411;-71
2022/12/11 14:23:38;;;;;;;;;;;;;;;;;;5088701;28;897;-71
2022/12/11 14:26:04;;;;;;;;;;;;;;;;;;5091844;28;1977;-71
2022/12/11 14:28:30;;;;;;;;;;;;;;;;;;5073319;28;1290;-71
2022/12/11 14:30:56;;;;;;;;;;;;;;;;;;5091502;28;1265;-71
2022/12/11 14:33:23;;;;;;;;;;;;;;;;;;5090790;28;1028;-71
2022/12/11 14:35:49;;;;;;;;;;;;;;;;;;5091567;28;1036;-71
2022/12/11 14:38:15;;;;;;;;;;;;;;;;;;5073707;28;1196;-71
2022/12/11 14:40:41;;;;;;;;;;;;;;;;;;5072659;28;1143;-71
2022/12/11 14:43:07;;;;;;;;;;;;;;;;;;5089334;28;1298;-71
2022/12/11 14:45:33;;;;;;;;;;;;;;;;;;5089162;28;1982;-71
2022/12/11 14:47:59;;;;;;;;;;;;;;;;;;5089891;28;965;-71
2022/12/11 14:50:25;;;;;;;;;;;;;;;;;;5089421;28;1006;-71
2022/12/11 14:52:51;;;;;;;;;;;;;;;;;;5088114;28;1315;-71
2022/12/11 14:55:18;;;;;;;;;;;;;;;;;;5088775;28;1084;-71
2022/12/11 14:57:44;;;;;;;;;;;;;;;;;;5086886;28;1159;-71
2022/12/11 15:00:11;;;;;;;;;;;;;;;;;;5088652;28;874;-71
2022/12/11 15:02:37;;;;;;;;;;;;;;;;;;5086248;28;1320;-71
2022/12/11 15:05:03;;;;;;;;;;;;;;;;;;5091828;28;1906;-71
2022/12/11 15:07:29;;;;;;;;;;;;;;;;;;5092306;28;1067;-71
2022/12/11 15:09:55;;;;;;;;;;;;;;;;;;5074227;28;1353;-71
2022/12/11 15:12:21;;;;;;;;;;;;;;;;;;5091611;28;1301;-71
2022/12/11 15:14:47;;;;;;;;;;;;;;;;;;5091629;28;1063;-71
2022/12/11 15:17:13;;;;;;;;;;;;;;;;;;5089984;28;1094;-71
2022/12/11 15:19:40;;;;;;;;;;;;;;;;;;5088806;28;1065;-71
2022/12/11 15:22:06;;;;;;;;;;;;;;;;;;5088918;28;1285;-71
2022/12/11 15:24:32;;;;;;;;;;;;;;;;;;5091252;28;1964;-71
2022/12/11 15:26:58;;;;;;;;;;;;;;;;;;5072928;28;1201;-71
2022/12/11 15:29:24;;;;;;;;;;;;;;;;;;5080415;28;1390;-71
2022/12/11 15:31:50;;;;;;;;;;;;;;;;;;5070219;28;1325;-71
2022/12/11 15:34:16;;;;;;;;;;;;;;;;;;5071174;28;965;-71
2022/12/11 15:36:42;;;;;;;;;;;;;;;;;;5071028;28;858;-71
2022/12/11 15:39:08;;;;;;;;;;;;;;;;;;5071501;28;1112;-71
2022/12/11 15:41:34;;;;;;;;;;;;;;;;;;5072628;28;1418;-71
2022/12/11 15:44:01;;;;;;;;;;;;;;;;;;5074348;28;1055;-71
2022/12/11 15:46:27;;;;;;;;;;;;;;;;;;5086862;28;1977;-71
2022/12/11 15:48:53;;;;;;;;;;;;;;;;;;5093703;28;866;-71
2022/12/11 15:51:19;;;;;;;;;;;;;;;;;;5093633;28;1377;-71
2022/12/11 15:53:45;;;;;;;;;;;;;;;;;;5095892;28;1067;-71
2022/12/11 15:56:11;;;;;;;;;;;;;;;;;;5096110;28;1071;-71
2022/12/11 15:58:37;;;;;;;;;;;;;;;;;;5096094;28;1051;-71
2022/12/11 16:01:03;;;;;;;;;;;;;;;;;;5077767;28;1384;-71
2022/12/11 16:03:31;;;;;;;;;;;;;;;;;;5095300;28;762;-71
2022/12/11 16:05:57;;;;;;;;;;;;;;;;;;5094607;28;1988;-71
2022/12/11 16:08:23;;;;;;;;;;;;;;;;;;5094660;28;782;-71
2022/12/11 16:10:49;;;;;;;;;;;;;;;;;;5094590;28;1063;-71
2022/12/11 16:13:15;;;;;;;;;;;;;;;;;;5075395;28;1432;-71
2022/12/11 16:15:42;;;;;;;;;;;;;;;;;;5093815;28;897;-71
2022/12/11 16:18:08;;;;;;;;;;;;;;;;;;5094361;28;766;-71
2022/12/11 16:20:34;;;;;;;;;;;;;;;;;;5094459;28;1039;-71
2022/12/11 16:23:00;;;;;;;;;;;;;;;;;;5074161;28;1352;-71
2022/12/11 16:25:26;;;;;;;;;;;;;;;;;;5091842;28;1977;-71
2022/12/11 16:27:52;;;;;;;;;;;;;;;;;;5076771;28;2272;-71
2022/12/11 16:30:18;;;;;;;;;;;;;;;;;;5095654;28;1090;-71
2022/12/11 16:32:44;;;;;;;;;;;;;;;;;;5094624;28;1302;-71
2022/12/11 16:35:10;;;;;;;;;;;;;;;;;;5077644;28;1240;-71
2022/12/11 16:37:36;;;;;;;;;;;;;;;;;;5095661;28;972;-71
2022/12/11 16:40:03;;;;;;;;;;;;;;;;;;5095663;28;1060;-71
2022/12/11 16:42:29;;;;;;;;;;;;;;;;;;5094384;28;1375;-72
2022/12/11 16:44:55;;;;;;;;;;;;;;;;;;5090917;28;1991;-71
2022/12/11 16:47:21;;;;;;;;;;;;;;;;;;5087300;28;1143;-71
2022/12/11 16:49:47;;;;;;;;;;;;;;;;;;5095625;28;762;-71
2022/12/11 16:52:14;;;;;;;;;;;;;;;;;;5092916;28;1410;-71
2022/12/11 16:54:40;;;;;;;;;;;;;;;;;;5093990;28;1913;-71
2022/12/11 16:57:06;;;;;;;;;;;;;;;;;;5093367;28;1394;-71
2022/12/11 16:59:32;;;;;;;;;;;;;;;;;;5100148;28;1491;-72
2022/12/11 17:01:58;;;;;;;;;;;;;;;;;;5100429;28;1350;-71
2022/12/11 17:04:27;;;;;;;;;;;;;;;;;;5102874;28;942;-71
2022/12/11 17:06:53;;;;;;;;;;;;;;;;;;5084088;28;1918;-71
2022/12/11 17:09:19;;;;;;;;;;;;;;;;;;5094908;28;1063;-71